This is the latest recevied weather packets stored in our database for station/object WA9AFM-10. If no packets are shown the sender has not sent any weather packets the latest 10 day(s).
| Time | Temp. | Humidity | Pressure | Rain* | Wind** | Luminosity | Snow |
|---|---|---|---|---|---|---|---|
| 1777758672 | 24.44° C | 36% | 1014.1 hPa | 0 mm | - | - | - |
| 1777756873 | 24.44° C | 36% | 1014.5 hPa | 0 mm | - | - | - |
| 1777751474 | 23.33° C | 42% | 1015.3 hPa | 0 mm | - | - | - |
| 1777749673 | 22.78° C | 41% | 1015.5 hPa | 0 mm | - | - | - |
| 1777747873 | 23.33° C | 41% | 1015.8 hPa | 0 mm | - | - | - |
| 1777746074 | 22.22° C | 38% | 1016.3 hPa | 0 mm | - | - | - |
| 1777742473 | 21.67° C | 44% | 1016.7 hPa | 0 mm | - | - | - |
| 1777740673 | 21.67° C | 41% | 1016.7 hPa | 0 mm | - | - | - |
| 1777738874 | 20° C | 48% | 1016.6 hPa | 0 mm | - | - | - |
| 1777737072 | 18.89° C | 55% | 1016.7 hPa | 0 mm | - | - | - |
| 1777735273 | 18.33° C | 53% | 1016.9 hPa | 0 mm | - | - | - |
| 1777733473 | 17.22° C | 55% | 1016.9 hPa | 0 mm | - | - | - |
| 1777731674 | 16.11° C | 56% | 1016.6 hPa | 0 mm | - | - | - |
| 1777729872 | 16.11° C | 55% | 1016.9 hPa | 0 mm | - | - | - |
| 1777728074 | 13.33° C | 63% | 1016.7 hPa | 0 mm | - | - | - |
| 1777726273 | 11.11° C | 70% | 1016.6 hPa | 0 mm | - | - | - |
| 1777724473 | 10° C | 72% | 1016.4 hPa | 0 mm | - | - | - |
| 1777720874 | 11.11° C | 68% | 1016 hPa | 0 mm | - | - | - |
| 1777719073 | 11.67° C | 67% | 1016.4 hPa | 0 mm | - | - | - |
| 1777715473 | 8.89° C | 77% | 1015.3 hPa | 0 mm | - | - | - |
| 1777713674 | 7.78° C | 79% | 1015 hPa | 0 mm | - | - | - |
| 1777711873 | 7.78° C | 79% | 1014.6 hPa | 0 mm | - | - | - |
| 1777710073 | 8.33° C | 77% | 1014.7 hPa | 0 mm | - | - | - |
| 1777706474 | 8.89° C | 74% | 1014.8 hPa | 0 mm | - | - | - |
| 1777704674 | 9.44° C | 72% | 1014.7 hPa | 0 mm | - | - | - |
* Rain latest hour (hover to see other rain measurements)
** Current wind speed in m/s (hover to see current wind gust speed)